Weather at Swartkop Air Force Base

Public forecast

Using degrees Celsius for public forecast. Weather courtesy of forecast.io.

Current aviation weather report (METAR) for Swartkop Air Force Base

Report is more than 6 hours old.

Retrieved 2017/01/17 14:00 UTC (5 years ago):

FASK 171400Z 09005KT 010V160 9999 SCT030 30/12 Q1015 NOSIG

Aviation forecast (TAF) for Swartkop Air Force Base

Forecast is more than 12 hours old.

Retrieved 2012/07/20 10:20 UTC (9 years ago):

TAF FASK 200900Z 2010/2018 30010KT CAVOK TX20/2012ZTN05/2018Z